Clearwater, KS (67026)

10:16 PM CDT on May 03, 2015 (GMT -0500)
Dove Haven | | Change Station
CLOSE
Current Station
Personal Weather Station
Location: Clearwater, KS
Elevation: 1394 ft
Nearby Weather Stations

Elev 1394 ft 37.56 °N, 97.52 °W | Updated 1 minute ago

Partly Cloudy
Partly Cloudy
69.1 °F
Feels Like 69.1 °F
N
12.0
Wind Variable Wind from South
Gusts 19.0 mph

Today
High -- | Low -- °F
--% Chance of Precip.
Yesterday
High -- | Low -- °F
Precip. -- in
6:32 AM 8:21 PM
Full, 100% visible
Pressure 29.86 in
Visibility 10.0 miles
Clouds Scattered Clouds 11000 ft
Scattered Clouds 13000 ft
Mostly Cloudy 25000 ft
Dew Point 58 °F
Humidity 67%
Rainfall 0.00 in
Snow Depth Not available.
UV 0.0 out of 12
Pollen 11.20 out of 12
Air Quality Not available.
Flu Activity Sporadic
METAR KICT 040253Z 18013KT 10SM SCT110 SCT130 BKN250 22/13 A2989 RMK AO2 SLP109 T02170128 53020

More Conditions Fewer Conditions

Pressure 29.86 in
Visibility 10.0 miles
Clouds Scattered Clouds 11000 ft
Scattered Clouds 13000 ft
Mostly Cloudy 25000 ft
Dew Point 58 °F
Humidity 67%
Rainfall 0.00 in
Snow Depth Not available.
UV 0.0 out of 12
Pollen 11.20 out of 12
Air Quality Not available.
Flu Activity Sporadic
METAR KICT 040253Z 18013KT 10SM SCT110 SCT130 BKN250 22/13 A2989 RMK AO2 SLP109 T02170128 53020

More Conditions Fewer Conditions

Nepal has a long way to go to dig out and rebuild from a devastating earthquake. We have teamed up with several charities and organizations to make contributing to the relief effort as easy as possible.
How you can help: Portlight Strategies | Red Cross

10-Day Weather Forecast

Almanac

Astronomy

May. 03, 2015 Rise Set
Actual Time
Civil Twilight
Nautical Twilight
Astronomical Twilight
Moon
Length of Visible Light
Length of Day
Tomorrow will be .
, % of the Moon is Illuminated

Today's Extremes

State Highs State Lows

Community

WunderPhotos

Upload Photos

1,818,491 photos uploaded!

WunderBlogs® & News

Nearby

Air Quality

  Air Quality AQ Index Pollutant
Not available.

Snow Depth

Station Depth Elevation

Earthquake Activity

City Distance Mag. Time & Date
Minimum magnitude displayed is 2.5.

Coastal Water Temperatures

Place Temperature

Stations

Nearby Weather Stations

Station Location Temp. Windchill Dew Point Humidity Wind Precip. Elev Updated Type